Time;durP1;ratioP1;P1;durP2;ratioP2;P2;SDS_P1;SDS_P2;PMS_P1;PMS_P2;Temp;Humidity;BMP_temperature;BMP_pressure;BME280_temperature;BME280_humidity;BME280_pressure;Samples;Min_cycle;Max_cycle;Signal;HPM_P1;HPM_P2
2021/12/21 08:11:29;;;;;;;3.70;2.38;;;13.60;75.50;;;;;;2289994;62;30082;-80
2021/12/21 08:13:59;;;;;;;2.13;2.00;;;13.70;74.50;;;;;;2284509;62;30236;-86
2021/12/21 08:16:25;;;;;;;2.50;2.30;;;13.80;75.50;;;;;;2290846;62;30254;-84
2021/12/21 08:18:57;;;;;;;3.03;2.10;;;13.90;76.20;;;;;;2291037;62;31429;-84
2021/12/21 08:21:25;;;;;;;3.10;1.90;;;13.90;76.70;;;;;;2291200;62;30340;-85
2021/12/21 08:23:51;;;;;;;2.40;2.15;;;13.90;77.20;;;;;;2290800;62;30208;-85
2021/12/21 08:26:17;;;;;;;2.67;2.47;;;13.90;77.50;;;;;;2283637;62;30142;-83
2021/12/21 08:28:43;;;;;;;2.60;2.40;;;14.00;77.80;;;;;;2276817;62;30178;-84
2021/12/21 08:31:11;;;;;;;3.72;2.20;;;14.00;78.00;;;;;;2290671;62;30338;-82
2021/12/21 08:33:37;;;;;;;2.70;2.03;;;14.00;78.00;;;;;;2291114;62;30269;-82
2021/12/21 08:36:07;;;;;;;3.58;2.40;;;14.00;78.10;;;;;;2291109;62;30089;-86
2021/12/21 08:38:38;;;;;;;3.55;2.20;;;14.10;78.20;;;;;;2277152;62;30354;-87
2021/12/21 08:41:04;;;;;;;2.53;2.08;;;14.10;78.20;;;;;;2276978;62;30369;-88
2021/12/21 08:43:31;;;;;;;2.45;2.25;;;14.10;78.20;;;;;;2291132;62;30602;-82
2021/12/21 08:45:57;;;;;;;3.03;2.28;;;14.10;78.10;;;;;;2290667;62;30041;-87
2021/12/21 08:48:25;;;;;;;3.28;2.15;;;14.20;78.10;;;;;;2286148;62;30134;-82
2021/12/21 08:50:53;;;;;;;2.38;2.20;;;14.20;78.00;;;;;;2291021;62;30399;-81
2021/12/21 08:53:20;;;;;;;2.40;2.20;;;14.20;77.90;;;;;;2290751;62;30163;-80
2021/12/21 08:55:46;;;;;;;2.72;2.25;;;14.30;77.90;;;;;;2276773;62;30293;-79
2021/12/21 08:58:12;;;;;;;2.47;2.22;;;14.30;77.70;;;;;;2290803;62;30285;-80
2021/12/21 09:00:38;;;;;;;3.60;2.40;;;14.20;77.60;;;;;;2283203;62;30288;-79
2021/12/21 09:03:04;;;;;;;2.70;2.50;;;14.20;77.70;;;;;;2283192;62;30169;-82
2021/12/21 09:05:31;;;;;;;2.80;2.60;;;14.20;77.70;;;;;;2290826;62;30297;-81
2021/12/21 09:08:00;;;;;;;3.13;2.50;;;14.20;78.10;;;;;;2290738;62;30904;-81
2021/12/21 09:10:26;;;;;;;6.10;2.55;;;14.30;77.70;;;;;;2290192;62;30470;-78
2021/12/21 09:12:52;;;;;;;2.50;2.30;;;14.30;77.60;;;;;;2283103;62;30238;-78
2021/12/21 09:15:21;;;;;;;2.45;1.95;;;14.30;77.30;;;;;;2283374;62;30257;-80
2021/12/21 09:17:47;;;;;;;3.83;2.50;;;14.30;77.30;;;;;;2290760;62;31005;-81
2021/12/21 09:20:14;;;;;;;3.22;2.20;;;14.30;77.00;;;;;;2283038;62;30265;-86
2021/12/21 09:22:40;;;;;;;5.65;3.08;;;14.30;77.00;;;;;;2271097;62;30175;-80
2021/12/21 09:25:09;;;;;;;4.70;2.72;;;14.30;77.00;;;;;;2285112;62;30050;-81
2021/12/21 09:27:35;;;;;;;3.53;2.60;;;14.30;77.00;;;;;;2277576;62;30801;-78
2021/12/21 09:30:02;;;;;;;2.63;2.42;;;14.30;77.00;;;;;;2285174;62;30452;-83
2021/12/21 09:32:28;;;;;;;3.63;2.60;;;14.30;76.70;;;;;;2285225;62;30171;-79
2021/12/21 09:34:53;;;;;;;4.43;2.55;;;14.30;76.60;;;;;;2284945;62;30324;-79
2021/12/21 09:37:20;;;;;;;5.55;2.60;;;14.30;76.50;;;;;;2285194;62;30197;-79
2021/12/21 09:39:48;;;;;;;3.60;2.38;;;14.30;76.50;;;;;;2285109;62;30322;-79
2021/12/21 09:42:15;;;;;;;2.20;2.00;;;14.30;76.50;;;;;;2277549;62;30199;-75
2021/12/21 09:44:42;;;;;;;2.58;2.38;;;14.30;76.40;;;;;;2270058;62;30628;-74
2021/12/21 09:47:09;;;;;;;3.03;2.50;;;14.20;76.30;;;;;;2284147;62;30248;-77
2021/12/21 09:49:37;;;;;;;2.63;2.28;;;14.30;76.30;;;;;;2284724;62;30184;-76
2021/12/21 09:52:04;;;;;;;2.78;2.30;;;14.30;76.30;;;;;;2277679;62;30254;-75
2021/12/21 09:54:32;;;;;;;2.45;2.22;;;14.20;76.20;;;;;;2277624;62;30154;-75
2021/12/21 09:56:58;;;;;;;3.00;2.38;;;14.20;76.20;;;;;;2277438;62;30143;-75
2021/12/21 09:59:25;;;;;;;3.58;2.20;;;14.20;76.10;;;;;;2284945;62;30089;-75
2021/12/21 10:01:51;;;;;;;3.50;2.13;;;14.20;76.10;;;;;;2284760;62;30177;-78
2021/12/21 10:04:18;;;;;;;2.58;2.10;;;14.20;76.10;;;;;;2277152;62;30211;-78
2021/12/21 10:06:49;;;;;;;2.63;2.20;;;14.20;76.00;;;;;;2270448;62;30232;-75
2021/12/21 10:09:16;;;;;;;2.40;2.20;;;14.20;75.90;;;;;;2277276;62;31220;-75
2021/12/21 10:11:47;;;;;;;3.35;2.10;;;14.20;76.00;;;;;;2277721;62;30460;-78
2021/12/21 10:14:15;;;;;;;2.75;2.17;;;14.20;76.00;;;;;;2283559;62;30327;-77
2021/12/21 10:16:44;;;;;;;2.50;2.00;;;14.10;75.90;;;;;;2274214;62;30145;-76
2021/12/21 10:19:22;;;;;;;2.50;2.30;;;14.10;76.00;;;;;;2281624;62;30466;-75
2021/12/21 10:21:48;;;;;;;2.90;2.42;;;14.10;75.70;;;;;;2284601;62;30317;-75
2021/12/21 10:24:27;;;;;;;2.95;2.22;;;14.10;76.10;;;;;;2277221;62;30254;-76
2021/12/21 10:27:04;;;;;;;2.35;2.00;;;14.10;75.70;;;;;;2277519;62;30566;-78
2021/12/21 10:29:40;;;;;;;2.33;2.10;;;14.10;76.00;;;;;;2277388;62;30223;-78
2021/12/21 10:32:06;;;;;;;2.10;1.90;;;14.10;75.70;;;;;;2277429;62;30184;-78
2021/12/21 10:34:32;;;;;;;3.30;2.17;;;14.10;75.90;;;;;;2284738;62;30144;-79
2021/12/21 10:36:58;;;;;;;7.28;2.10;;;14.10;75.80;;;;;;2277095;62;32038;-77
2021/12/21 10:39:28;;;;;;;3.42;2.20;;;14.10;75.80;;;;;;2284814;62;30609;-78
2021/12/21 10:41:56;;;;;;;2.20;2.00;;;14.10;75.70;;;;;;2284637;62;30101;-78
2021/12/21 10:44:22;;;;;;;2.47;1.98;;;14.10;75.70;;;;;;2284535;62;30110;-77
2021/12/21 10:46:53;;;;;;;2.20;1.98;;;14.10;75.70;;;;;;2284783;62;30247;-84
2021/12/21 10:49:21;;;;;;;3.97;2.10;;;14.10;75.70;;;;;;2284758;62;30165;-77
2021/12/21 10:52:07;;;;;;;2.75;1.88;;;14.10;75.70;;;;;;2284326;62;30217;-74
2021/12/21 10:54:39;;;;;;;3.33;2.25;;;14.10;75.40;;;;;;2284713;62;30092;-73
2021/12/21 10:57:15;;;;;;;2.72;2.10;;;14.10;75.60;;;;;;2277145;62;30040;-72
2021/12/21 10:59:42;;;;;;;3.90;2.10;;;14.10;75.60;;;;;;2277483;62;30536;-77
2021/12/21 11:02:16;;;;;;;2.33;1.90;;;14.10;75.70;;;;;;2267867;62;30548;-78
2021/12/21 11:04:47;;;;;;;2.97;2.13;;;14.00;76.40;;;;;;2277420;62;30321;-76
2021/12/21 11:07:24;;;;;;;3.43;2.20;;;14.00;75.80;;;;;;2285946;62;30148;-75
2021/12/21 11:10:16;;;;;;;2.75;2.00;;;14.10;75.80;;;;;;2284477;62;30564;-75
2021/12/21 11:12:45;;;;;;;3.05;1.95;;;14.10;75.50;;;;;;2272520;62;31056;-76
2021/12/21 11:15:15;;;;;;;3.28;1.95;;;14.10;75.70;;;;;;2284585;62;30186;-75
2021/12/21 11:17:43;;;;;;;13.52;3.10;;;14.10;75.70;;;;;;2272166;62;35288;-72
2021/12/21 11:20:13;;;;;;;2.92;1.90;;;14.10;75.70;;;;;;2281398;62;30613;-74
2021/12/21 11:22:40;;;;;;;4.45;1.90;;;14.20;75.60;;;;;;2284441;62;30303;-75
2021/12/21 11:25:07;;;;;;;5.93;1.88;;;14.20;75.50;;;;;;2284694;62;30297;-74
2021/12/21 11:27:34;;;;;;;4.00;2.00;;;14.20;75.50;;;;;;2284585;62;31489;-74
2021/12/21 11:30:03;;;;;;;3.17;2.13;;;14.30;75.60;;;;;;2277298;62;30285;-75
2021/12/21 11:32:30;;;;;;;2.05;1.73;;;14.30;75.50;;;;;;2284895;62;30526;-75
2021/12/21 11:37:42;;;;;;;3.15;1.95;;;14.30;75.30;;;;;;2278107;62;31137;-75
2021/12/21 11:40:09;;;;;;;2.58;2.00;;;14.40;75.10;;;;;;2277265;62;30305;-75
2021/12/21 11:42:40;;;;;;;3.08;1.80;;;14.40;75.00;;;;;;2270292;62;30249;-76
2021/12/21 11:45:15;;;;;;;2.55;1.98;;;14.50;74.90;;;;;;2284255;62;30085;-76
2021/12/21 11:47:45;;;;;;;2.25;2.00;;;14.60;74.80;;;;;;2270396;62;30302;-76
2021/12/21 11:50:11;;;;;;;2.72;1.90;;;14.60;74.80;;;;;;2272728;62;31382;-74
2021/12/21 11:52:48;;;;;;;6.97;2.00;;;14.60;74.80;;;;;;2269090;62;30476;-74
2021/12/21 11:55:15;;;;;;;3.00;2.20;;;14.50;74.60;;;;;;2276122;62;30477;-74
2021/12/21 11:57:54;;;;;;;3.97;2.10;;;14.50;74.70;;;;;;2276238;62;31055;-74
2021/12/21 12:00:34;;;;;;;3.22;2.10;;;14.50;74.60;;;;;;2276404;62;30439;-74
2021/12/21 12:03:14;;;;;;;3.30;1.80;;;14.60;74.60;;;;;;2275637;62;30298;-74
2021/12/21 12:06:03;;;;;;;2.58;1.70;;;14.50;74.40;;;;;;2279881;62;30072;-73
2021/12/21 12:08:50;;;;;;;1.98;1.77;;;14.60;74.20;;;;;;2284295;62;30248;-73
2021/12/21 12:11:36;;;;;;;3.50;2.03;;;14.60;74.30;;;;;;2266596;62;30616;-73
2021/12/21 12:14:13;;;;;;;4.35;2.15;;;14.60;74.20;;;;;;2259466;63;30281;-73
2021/12/21 12:16:53;;;;;;;2.40;1.70;;;14.60;74.30;;;;;;2259383;63;30120;-73
2021/12/21 12:19:22;;;;;;;2.20;1.80;;;14.50;74.20;;;;;;2259543;63;30144;-73
2021/12/21 12:21:53;;;;;;;2.63;1.70;;;14.50;74.50;;;;;;2259903;62;30840;-74
2021/12/21 12:24:19;;;;;;;2.65;1.95;;;14.50;74.50;;;;;;2259315;62;30589;-73
2021/12/21 12:26:54;;;;;;;2.42;1.95;;;14.50;74.50;;;;;;2259861;63;30426;-74
2021/12/21 12:29:20;;;;;;;5.25;2.03;;;14.50;74.60;;;;;;2258740;63;31213;-74
2021/12/21 12:31:47;;;;;;;3.55;2.13;;;14.40;74.50;;;;;;2258882;63;30637;-74
2021/12/21 12:34:29;;;;;;;4.93;1.98;;;14.40;74.50;;;;;;2259342;63;30109;-74
2021/12/21 12:36:55;;;;;;;2.58;1.80;;;14.40;74.50;;;;;;2259045;63;30088;-73
2021/12/21 12:39:38;;;;;;;3.58;1.90;;;14.40;74.60;;;;;;2259959;63;30169;-74
2021/12/21 12:42:05;;;;;;;;;;;14.40;74.40;;;;;;2260072;62;30745;-74
2021/12/21 12:44:33;;;;;;;3.05;1.83;;;14.40;74.20;;;;;;2263311;62;30172;-75
2021/12/21 12:47:02;;;;;;;5.32;1.88;;;14.40;74.40;;;;;;2267768;62;29914;-74
2021/12/21 12:49:30;;;;;;;5.78;2.10;;;14.50;74.40;;;;;;2267005;62;30274;-74
2021/12/21 12:52:07;;;;;;;3.45;2.00;;;14.50;74.40;;;;;;2267604;62;30170;-76
2021/12/21 12:54:52;;;;;;;3.22;1.90;;;14.50;74.40;;;;;;2257713;62;30198;-74
2021/12/21 12:57:28;;;;;;;2.60;1.60;;;14.40;74.30;;;;;;2267471;62;32009;-72
2021/12/21 12:59:55;;;;;;;4.43;2.20;;;14.40;74.40;;;;;;2268193;62;30201;-71
2021/12/21 13:02:21;;;;;;;2.95;2.00;;;14.40;74.30;;;;;;2268773;62;30621;-71
2021/12/21 13:04:47;;;;;;;1.85;1.70;;;14.40;74.30;;;;;;2269011;62;30170;-72
2021/12/21 13:07:26;;;;;;;2.42;1.65;;;14.50;74.20;;;;;;2263394;62;30081;-74
2021/12/21 13:10:07;;;;;;;3.97;1.90;;;14.50;74.20;;;;;;2260332;62;30277;-72
2021/12/21 13:12:33;;;;;;;1.92;1.70;;;14.50;74.00;;;;;;2262129;62;30695;-72
2021/12/21 13:14:59;;;;;;;4.22;1.90;;;14.40;74.10;;;;;;2269039;62;30193;-72
2021/12/21 13:17:25;;;;;;;3.08;1.90;;;14.40;74.20;;;;;;2267248;62;30274;-72
2021/12/21 13:19:52;;;;;;;2.55;1.70;;;14.40;74.30;;;;;;2268079;62;30160;-72
2021/12/21 13:22:23;;;;;;;4.32;1.63;;;14.40;74.30;;;;;;2268220;62;30304;-72
2021/12/21 13:24:49;;;;;;;2.70;1.70;;;14.40;74.30;;;;;;2268229;62;30216;-71
2021/12/21 13:27:15;;;;;;;3.40;1.90;;;14.30;74.20;;;;;;2268649;62;30169;-71
2021/12/21 13:29:44;;;;;;;2.15;1.50;;;14.40;74.20;;;;;;2261653;62;31957;-71
2021/12/21 13:32:11;;;;;;;2.75;1.65;;;14.40;74.20;;;;;;2268551;62;30444;-71
2021/12/21 13:34:39;;;;;;;4.07;1.63;;;14.40;74.20;;;;;;2261536;62;30218;-72
2021/12/21 13:37:07;;;;;;;1.42;1.33;;;14.40;74.20;;;;;;2269025;62;30024;-72
2021/12/21 13:39:35;;;;;;;2.40;1.60;;;14.40;74.10;;;;;;2268486;62;30355;-71
2021/12/21 13:42:14;;;;;;;1.85;1.60;;;14.40;74.20;;;;;;2268775;62;29997;-72
2021/12/21 13:44:42;;;;;;;1.73;1.45;;;14.40;74.20;;;;;;2268957;62;30777;-72
2021/12/21 13:47:14;;;;;;;2.20;1.70;;;14.40;74.30;;;;;;2268073;62;30193;-72
2021/12/21 13:49:52;;;;;;;;;;;14.30;74.30;;;;;;2269221;62;30850;-71
2021/12/21 13:52:19;;;;;;;2.17;1.80;;;14.30;74.10;;;;;;2268647;62;30640;-72
2021/12/21 13:54:44;;;;;;;2.60;1.70;;;14.30;74.50;;;;;;2268142;62;30058;-72
2021/12/21 13:57:14;;;;;;;1.85;1.50;;;14.30;74.50;;;;;;2269078;62;30126;-72
2021/12/21 13:59:40;;;;;;;2.20;1.30;;;14.40;74.40;;;;;;2268502;62;30318;-72
2021/12/21 14:02:08;;;;;;;2.08;1.70;;;14.40;74.40;;;;;;2268718;62;30019;-72
2021/12/21 14:04:39;;;;;;;2.92;1.60;;;14.50;74.40;;;;;;2269160;62;30241;-72
2021/12/21 14:07:05;;;;;;;2.83;1.63;;;14.50;74.30;;;;;;2269035;62;30247;-72
2021/12/21 14:09:31;;;;;;;1.77;1.40;;;14.50;74.30;;;;;;2270247;62;30239;-72
2021/12/21 14:11:57;;;;;;;1.70;1.60;;;14.60;74.30;;;;;;2276433;62;30761;-72
2021/12/21 14:14:23;;;;;;;1.67;1.40;;;14.50;74.20;;;;;;2270883;62;30371;-72
2021/12/21 14:16:50;;;;;;;2.55;1.52;;;14.50;74.30;;;;;;2267981;62;30335;-72
2021/12/21 14:19:21;;;;;;;1.65;1.55;;;14.50;74.30;;;;;;2268340;62;30188;-72
2021/12/21 14:21:51;;;;;;;1.98;1.67;;;14.50;74.50;;;;;;2268228;62;30157;-72
2021/12/21 14:24:20;;;;;;;2.38;1.50;;;14.60;74.30;;;;;;2261407;62;30041;-72
2021/12/21 14:26:52;;;;;;;1.27;1.05;;;14.60;74.20;;;;;;2268227;62;30312;-72
2021/12/21 14:29:26;;;;;;;1.92;1.50;;;14.60;74.20;;;;;;2268573;62;30318;-72
2021/12/21 14:34:27;;;;;;;2.65;1.60;;;14.50;74.20;;;;;;2268883;62;30071;-72
2021/12/21 14:36:53;;;;;;;1.67;1.48;;;14.50;74.30;;;;;;2268562;62;30167;-72
2021/12/21 14:39:20;;;;;;;1.67;1.40;;;14.50;74.40;;;;;;2267079;62;30844;-72
2021/12/21 14:41:57;;;;;;;2.15;1.83;;;14.40;74.30;;;;;;2276183;62;31035;-72
2021/12/21 14:44:27;;;;;;;1.65;1.30;;;14.40;74.20;;;;;;2276046;62;30168;-72
2021/12/21 14:47:36;;;;;;;1.60;1.50;;;14.40;74.30;;;;;;2270407;62;30300;-72
2021/12/21 14:50:08;;;;;;;1.40;1.30;;;14.40;74.30;;;;;;2235403;63;30252;-71
2021/12/21 14:52:49;;;;;;;1.60;1.30;;;14.40;74.20;;;;;;2235348;63;30837;-72
2021/12/21 14:55:28;;;;;;;1.90;1.42;;;14.40;74.20;;;;;;2252461;62;30160;-72
2021/12/21 14:58:02;;;;;;;3.05;1.40;;;14.40;74.30;;;;;;2268435;62;30428;-72
2021/12/21 15:00:35;;;;;;;1.45;1.35;;;14.30;74.30;;;;;;2268154;62;30192;-72
2021/12/21 15:03:03;;;;;;;1.25;1.23;;;14.30;74.50;;;;;;2268169;62;31911;-72
2021/12/21 15:05:34;;;;;;;2.65;1.42;;;14.30;74.60;;;;;;2268338;62;30194;-72
2021/12/21 15:08:01;;;;;;;3.47;1.60;;;14.20;74.60;;;;;;2262326;62;30829;-72
2021/12/21 15:10:28;;;;;;;1.25;1.15;;;14.20;75.40;;;;;;2281890;62;31408;-72
2021/12/21 15:12:54;;;;;;;1.40;1.30;;;14.20;74.70;;;;;;2284574;62;30666;-72
2021/12/21 15:15:21;;;;;;;1.65;1.20;;;14.20;74.70;;;;;;2284855;62;30339;-72
2021/12/21 15:17:48;;;;;;;2.80;1.40;;;14.20;74.70;;;;;;2284742;62;29986;-73
2021/12/21 15:20:14;;;;;;;1.17;1.13;;;14.20;74.70;;;;;;2277031;62;30341;-72
2021/12/21 15:22:41;;;;;;;1.40;1.30;;;14.20;74.70;;;;;;2284802;62;30324;-72
2021/12/21 15:25:09;;;;;;;1.08;1.08;;;14.20;74.70;;;;;;2285768;62;30311;-72
2021/12/21 15:27:35;;;;;;;2.10;1.50;;;14.20;74.70;;;;;;2280562;62;30248;-72
2021/12/21 15:30:01;;;;;;;1.65;1.33;;;14.20;74.80;;;;;;2277268;62;30154;-72
2021/12/21 15:32:27;;;;;;;1.50;1.40;;;14.10;74.80;;;;;;2277106;62;30205;-72
2021/12/21 15:34:58;;;;;;;1.70;1.33;;;14.10;75.00;;;;;;2284620;62;30234;-72
2021/12/21 15:37:24;;;;;;;1.15;1.10;;;14.00;75.00;;;;;;2277642;62;30214;-72
2021/12/21 15:39:49;;;;;;;1.73;1.40;;;14.00;75.00;;;;;;2284421;62;31197;-72
2021/12/21 15:42:17;;;;;;;1.60;1.48;;;14.00;75.10;;;;;;2284676;62;30462;-72
2021/12/21 15:44:57;;;;;;;1.80;1.60;;;14.00;75.00;;;;;;2284744;62;30268;-73
2021/12/21 15:47:23;;;;;;;1.55;1.42;;;14.00;75.00;;;;;;2284535;62;30318;-73
2021/12/21 15:49:50;;;;;;;1.52;1.38;;;14.10;75.10;;;;;;2284508;62;31010;-73
2021/12/21 15:52:16;;;;;;;2.42;1.30;;;14.20;75.00;;;;;;2284589;62;30516;-74
2021/12/21 15:54:42;;;;;;;5.78;1.50;;;14.40;74.80;;;;;;2268511;62;30418;-74
2021/12/21 15:57:08;;;;;;;1.90;1.40;;;14.50;74.60;;;;;;2276472;62;30728;-73
2021/12/21 15:59:34;;;;;;;2.35;1.05;;;14.70;74.40;;;;;;2281373;62;31034;-74
2021/12/21 16:02:00;;;;;;;2.03;1.50;;;14.80;74.10;;;;;;2280505;62;30435;-75
2021/12/21 16:04:26;;;;;;;1.73;1.30;;;14.90;74.10;;;;;;2284146;62;30952;-75
2021/12/21 16:06:52;;;;;;;1.38;1.27;;;15.00;74.00;;;;;;2277046;62;30177;-73
2021/12/21 16:09:18;;;;;;;1.50;1.20;;;15.00;73.90;;;;;;2276631;62;30355;-73
2021/12/21 16:11:45;;;;;;;1.38;1.13;;;15.00;73.90;;;;;;2284608;62;30070;-73
2021/12/21 16:14:11;;;;;;;1.35;1.30;;;15.10;73.90;;;;;;2284530;62;30212;-74
2021/12/21 16:16:36;;;;;;;1.30;1.20;;;15.10;73.90;;;;;;2276836;62;30953;-74
2021/12/21 16:19:03;;;;;;;1.30;1.20;;;15.10;74.60;;;;;;2284494;62;30821;-73
2021/12/21 16:21:29;;;;;;;2.65;1.20;;;15.10;73.80;;;;;;2276983;62;30522;-72
2021/12/21 16:23:57;;;;;;;1.38;1.27;;;15.10;73.80;;;;;;2284160;62;30294;-72
2021/12/21 16:26:23;;;;;;;1.13;1.08;;;15.10;74.50;;;;;;2270244;62;30262;-72
2021/12/21 16:28:49;;;;;;;1.70;1.10;;;15.20;73.80;;;;;;2282183;62;30288;-75
2021/12/21 16:31:21;;;;;;;3.85;1.33;;;15.20;73.80;;;;;;2283170;62;30369;-75
2021/12/21 16:33:51;;;;;;;2.45;1.25;;;15.30;73.80;;;;;;2277641;62;30299;-77
2021/12/21 16:36:17;;;;;;;2.35;1.45;;;15.30;73.60;;;;;;2277164;62;30328;-76
2021/12/21 16:38:43;;;;;;;1.80;1.70;;;15.40;73.60;;;;;;2284343;62;30240;-75
2021/12/21 16:41:09;;;;;;;1.40;1.30;;;15.50;73.60;;;;;;2277085;62;30636;-75
2021/12/21 16:43:37;;;;;;;1.85;1.50;;;15.50;73.40;;;;;;2276807;62;30137;-75
2021/12/21 16:46:08;;;;;;;1.58;1.48;;;15.60;73.40;;;;;;2276916;62;30095;-75
2021/12/21 16:48:35;;;;;;;1.60;1.50;;;15.60;73.30;;;;;;2281040;62;31675;-77
2021/12/21 16:51:01;;;;;;;1.58;1.48;;;15.70;73.30;;;;;;2275951;62;30177;-76
2021/12/21 16:53:26;;;;;;;1.50;1.40;;;15.70;73.20;;;;;;2272238;62;30222;-73
2021/12/21 16:55:52;;;;;;;1.55;1.45;;;15.70;73.00;;;;;;2277608;62;30582;-73
2021/12/21 16:58:24;;;;;;;2.60;1.70;;;15.80;73.00;;;;;;2283628;62;30265;-74
2021/12/21 17:00:51;;;;;;;1.80;1.70;;;15.80;72.90;;;;;;2284431;62;30055;-75
2021/12/21 17:03:17;;;;;;;1.80;1.70;;;15.80;72.80;;;;;;2277214;62;30301;-74
2021/12/21 17:05:43;;;;;;;1.88;1.60;;;15.80;72.70;;;;;;2277223;62;30725;-74
2021/12/21 17:08:14;;;;;;;1.40;1.30;;;15.90;72.70;;;;;;2277021;62;30381;-74
2021/12/21 17:10:44;;;;;;;3.70;1.67;;;15.90;72.70;;;;;;2285319;62;30548;-75
2021/12/21 17:13:11;;;;;;;2.22;1.70;;;15.90;72.70;;;;;;2285231;62;30093;-74
2021/12/21 17:15:37;;;;;;;2.47;1.67;;;15.90;72.60;;;;;;2270650;62;30155;-75
2021/12/21 17:18:03;;;;;;;1.92;1.70;;;16.00;72.60;;;;;;2285125;62;30321;-73
2021/12/21 17:20:29;;;;;;;1.50;1.40;;;16.00;72.60;;;;;;2285297;62;30877;-74
2021/12/21 17:22:55;;;;;;;1.70;1.50;;;16.00;72.40;;;;;;2278724;62;30180;-74
2021/12/21 17:25:22;;;;;;;2.95;1.80;;;16.00;72.30;;;;;;2276989;62;30529;-75
2021/12/21 17:27:48;;;;;;;1.98;1.77;;;16.00;72.30;;;;;;2277172;62;30886;-74
2021/12/21 17:30:15;;;;;;;2.25;1.80;;;16.00;72.30;;;;;;2277081;62;30229;-72
2021/12/21 17:32:44;;;;;;;2.78;2.22;;;16.10;72.40;;;;;;2276844;62;30130;-75
2021/12/21 17:35:10;;;;;;;2.33;2.13;;;16.10;72.40;;;;;;2277156;62;30081;-72
2021/12/21 17:37:40;;;;;;;3.50;2.10;;;16.10;72.40;;;;;;2269899;62;30087;-74
2021/12/21 17:40:07;;;;;;;2.22;1.63;;;16.00;72.30;;;;;;2269708;62;30568;-74
2021/12/21 17:42:33;;;;;;;2.92;1.90;;;16.10;72.30;;;;;;2268433;62;30428;-72
2021/12/21 17:44:59;;;;;;;2.35;2.05;;;16.00;72.20;;;;;;2269266;62;30782;-72
2021/12/21 17:47:25;;;;;;;2.15;1.80;;;16.10;72.20;;;;;;2276350;62;30196;-74
2021/12/21 17:49:51;;;;;;;5.32;1.98;;;16.10;72.10;;;;;;2269855;62;30067;-74
2021/12/21 17:52:17;;;;;;;3.53;2.10;;;16.20;72.10;;;;;;2274241;62;30340;-75
2021/12/21 17:54:44;;;;;;;5.07;1.70;;;16.30;72.20;;;;;;2283068;62;30172;-77
2021/12/21 17:57:10;;;;;;;2.08;1.88;;;16.30;72.10;;;;;;2283732;62;30274;-77
2021/12/21 17:59:36;;;;;;;2.20;1.80;;;16.40;72.10;;;;;;2276663;62;30240;-72
2021/12/21 18:02:02;;;;;;;1.67;1.58;;;16.40;71.90;;;;;;2283197;62;30160;-70
2021/12/21 18:04:28;;;;;;;2.00;1.73;;;16.50;71.90;;;;;;2276670;62;30141;-71
2021/12/21 18:06:54;;;;;;;3.15;1.92;;;16.50;71.80;;;;;;2284020;62;30776;-74
